createdAt,value
2023-01-19T00:01:59.489Z,27.94
2023-01-19T00:04:30.109Z,27.97
2023-01-19T00:07:02.693Z,27.99
2023-01-19T00:09:34.374Z,27.99
2023-01-19T00:12:05.849Z,27.98
2023-01-19T00:14:36.245Z,27.93
2023-01-19T00:17:07.167Z,28.02
2023-01-19T00:19:37.499Z,28.05
2023-01-19T00:22:08.658Z,28.07
2023-01-19T00:24:39.477Z,28.06
2023-01-19T00:27:10.254Z,28.11
2023-01-19T00:29:41.177Z,28.13
2023-01-19T00:32:13.861Z,28.14
2023-01-19T00:34:50.252Z,28.19
2023-01-19T00:37:21.749Z,28.11
2023-01-19T00:39:54.951Z,28.18
2023-01-19T00:42:44.001Z,28.26
2023-01-19T00:45:17.742Z,28.31
2023-01-19T00:47:50.111Z,28.31
2023-01-19T00:50:20.716Z,28.36
2023-01-19T00:52:51.912Z,28.38
2023-01-19T00:55:23.118Z,28.42
2023-01-19T00:57:54.328Z,28.51
2023-01-19T01:00:25.836Z,28.70
2023-01-19T01:02:57.791Z,28.69
2023-01-19T01:05:28.237Z,28.75
2023-01-19T01:07:58.527Z,28.81
2023-01-19T01:10:30.622Z,28.85
2023-01-19T01:13:21.081Z,28.79
2023-01-19T01:15:53.399Z,28.77
2023-01-19T01:18:24.696Z,28.82
2023-01-19T01:21:02.911Z,28.94
2023-01-19T01:23:33.786Z,28.95
2023-01-19T01:26:04.469Z,28.98
2023-01-19T01:28:34.790Z,29.03
2023-01-19T01:31:05.550Z,29.05
2023-01-19T01:33:40.690Z,29.01
2023-01-19T01:36:13.351Z,29.06
2023-01-19T01:38:47.168Z,29.07
2023-01-19T01:41:17.906Z,29.13
2023-01-19T01:44:02.691Z,29.15
2023-01-19T01:46:33.411Z,29.18
2023-01-19T01:49:24.120Z,29.24
2023-01-19T01:51:55.441Z,29.27
2023-01-19T01:54:31.343Z,29.29
2023-01-19T01:57:05.337Z,29.28
2023-01-19T01:59:42.016Z,29.29
2023-01-19T02:02:44.554Z,29.30
2023-01-19T02:05:34.443Z,29.40
2023-01-19T02:08:47.022Z,29.42
2023-01-19T02:11:36.799Z,29.46
2023-01-19T02:14:07.813Z,29.48
2023-01-19T02:16:39.199Z,29.49
2023-01-19T02:19:14.529Z,29.52
2023-01-19T02:22:15.893Z,29.60
2023-01-19T02:24:46.445Z,29.60
2023-01-19T02:27:18.720Z,29.68
2023-01-19T02:29:49.520Z,29.76
2023-01-19T02:32:19.919Z,29.82
2023-01-19T02:34:50.897Z,29.79
2023-01-19T02:37:22.090Z,29.78
2023-01-19T02:39:58.619Z,29.72
2023-01-19T02:42:47.419Z,29.80
2023-01-19T02:45:24.298Z,29.82
2023-01-19T02:47:54.888Z,29.85
2023-01-19T02:50:38.272Z,29.78
2023-01-19T02:53:09.182Z,29.76
2023-01-19T02:55:40.009Z,29.78
2023-01-19T02:58:21.891Z,29.80
2023-01-19T03:00:58.254Z,29.76
2023-01-19T03:03:33.320Z,29.83
2023-01-19T03:06:24.233Z,29.88
2023-01-19T03:09:13.807Z,29.89
2023-01-19T03:11:48.636Z,29.89
2023-01-19T03:14:24.587Z,29.99
2023-01-19T03:16:59.206Z,30.00
2023-01-19T03:19:43.910Z,30.02
2023-01-19T03:22:24.220Z,29.96
2023-01-19T03:25:00.712Z,29.97
2023-01-19T03:27:42.162Z,29.95
2023-01-19T03:30:26.088Z,29.99
2023-01-19T03:33:02.724Z,29.98
2023-01-19T03:35:36.314Z,29.96
2023-01-19T03:38:09.667Z,29.93
2023-01-19T03:40:41.081Z,29.96
2023-01-19T03:43:12.028Z,29.97
2023-01-19T03:45:44.790Z,29.98
2023-01-19T03:48:16.041Z,30.03
2023-01-19T03:50:46.936Z,30.04
2023-01-19T03:53:20.581Z,30.09
2023-01-19T03:55:58.844Z,30.14
2023-01-19T03:58:29.613Z,30.17
2023-01-19T04:01:02.852Z,30.20
2023-01-19T04:03:34.517Z,30.25
2023-01-19T04:06:05.037Z,30.30
2023-01-19T04:08:36.153Z,30.24
2023-01-19T04:11:06.806Z,30.24
2023-01-19T04:13:37.812Z,30.28
2023-01-19T04:16:08.805Z,30.31
2023-01-19T04:18:39.728Z,30.31
2023-01-19T04:21:10.616Z,30.37
2023-01-19T04:23:41.326Z,30.35
2023-01-19T04:26:14.863Z,30.31
2023-01-19T04:28:45.980Z,30.37
2023-01-19T04:31:16.661Z,30.45
2023-01-19T04:33:47.257Z,30.57
2023-01-19T04:36:18.394Z,30.63
2023-01-19T04:38:49.595Z,30.76
2023-01-19T04:41:20.387Z,30.81
2023-01-19T04:43:51.228Z,30.76
2023-01-19T04:46:22.230Z,30.73
2023-01-19T04:48:53.600Z,30.72
2023-01-19T04:51:24.191Z,30.70
2023-01-19T04:53:54.883Z,30.70
2023-01-19T04:56:25.319Z,30.71
2023-01-19T04:58:56.480Z,30.69
2023-01-19T05:01:26.969Z,30.70
2023-01-19T05:04:00.737Z,30.69
2023-01-19T05:06:31.960Z,30.69
2023-01-19T05:09:02.900Z,30.64
2023-01-19T05:11:33.532Z,30.63
2023-01-19T05:14:05.980Z,30.60
2023-01-19T05:16:37.662Z,30.67
2023-01-19T05:19:08.123Z,30.71
2023-01-19T05:21:38.548Z,30.72
2023-01-19T05:24:09.388Z,30.71
2023-01-19T05:26:48.760Z,30.72
2023-01-19T05:29:19.221Z,30.69
2023-01-19T05:31:49.928Z,30.77
2023-01-19T05:34:20.468Z,30.79
2023-01-19T05:36:52.448Z,30.79
2023-01-19T05:39:23.162Z,30.82
2023-01-19T05:41:53.619Z,30.83
2023-01-19T05:44:24.580Z,30.85
2023-01-19T05:46:55.048Z,30.83
2023-01-19T05:49:26.016Z,30.84
2023-01-19T05:51:57.022Z,30.85
2023-01-19T05:54:27.636Z,30.81
2023-01-19T05:56:58.678Z,30.90
2023-01-19T05:59:29.186Z,30.91
2023-01-19T06:02:01.015Z,30.94
2023-01-19T06:04:31.594Z,30.94
2023-01-19T06:07:03.216Z,30.96
2023-01-19T06:09:34.944Z,30.98
2023-01-19T06:12:06.053Z,30.98
2023-01-19T06:14:37.955Z,30.97
2023-01-19T06:17:09.715Z,30.96
2023-01-19T06:19:40.218Z,30.97
2023-01-19T06:22:10.945Z,30.98
2023-01-19T06:24:42.396Z,31.04
2023-01-19T06:27:12.748Z,31.05
2023-01-19T06:29:43.697Z,31.06
2023-01-19T06:32:14.167Z,31.06
2023-01-19T06:34:45.123Z,31.05
2023-01-19T06:37:17.668Z,31.12
2023-01-19T06:39:47.904Z,31.11
2023-01-19T06:42:18.365Z,31.13
2023-01-19T06:44:49.143Z,31.15
2023-01-19T06:47:19.966Z,31.13
2023-01-19T06:49:51.372Z,31.13
2023-01-19T06:52:21.946Z,31.10
2023-01-19T06:54:54.632Z,31.10
2023-01-19T06:57:27.265Z,31.04
2023-01-19T06:59:59.794Z,30.99
2023-01-19T07:02:31.112Z,30.97
2023-01-19T07:05:04.122Z,30.94
2023-01-19T07:07:34.747Z,30.91
2023-01-19T07:10:05.177Z,30.86
2023-01-19T07:12:36.363Z,30.89
2023-01-19T07:15:08.536Z,30.88
2023-01-19T07:17:39.882Z,30.84
2023-01-19T07:20:15.472Z,30.85
2023-01-19T07:22:49.940Z,30.82
2023-01-19T07:25:22.120Z,30.84
2023-01-19T07:27:53.022Z,30.80
2023-01-19T07:30:23.797Z,30.78
2023-01-19T07:32:58.805Z,30.73
2023-01-19T07:35:30.630Z,30.72
2023-01-19T07:38:07.153Z,30.71
2023-01-19T07:40:37.770Z,30.73
2023-01-19T07:43:08.606Z,30.76
2023-01-19T07:45:39.405Z,30.81
2023-01-19T07:48:12.003Z,30.75
2023-01-19T07:50:43.248Z,30.73
2023-01-19T07:53:14.301Z,30.68
2023-01-19T07:55:45.329Z,30.64
2023-01-19T07:58:16.157Z,30.62
2023-01-19T08:00:47.065Z,30.59
2023-01-19T08:03:18.789Z,30.57
2023-01-19T08:05:53.870Z,30.59
2023-01-19T08:08:24.596Z,30.58
2023-01-19T08:10:55.537Z,30.58
2023-01-19T08:13:27.268Z,30.55
2023-01-19T08:15:58.644Z,30.55
2023-01-19T08:18:29.342Z,30.52
2023-01-19T08:21:03.112Z,30.49
2023-01-19T08:23:33.422Z,30.48
2023-01-19T08:26:04.541Z,30.46
2023-01-19T08:28:35.501Z,30.47
2023-01-19T08:31:19.232Z,30.46
2023-01-19T08:33:51.648Z,30.42
2023-01-19T08:36:23.733Z,30.42
2023-01-19T08:38:54.626Z,30.41
2023-01-19T08:41:25.758Z,30.38
2023-01-19T08:43:56.392Z,30.38
2023-01-19T08:46:28.165Z,30.39
2023-01-19T08:48:58.759Z,30.38
2023-01-19T08:51:29.426Z,30.43
2023-01-19T08:53:59.998Z,30.42
2023-01-19T08:56:33.309Z,30.48
2023-01-19T08:59:09.914Z,30.45
2023-01-19T09:01:42.388Z,30.46
2023-01-19T09:04:15.915Z,30.43
2023-01-19T09:06:46.696Z,30.41
2023-01-19T09:09:17.430Z,30.45
2023-01-19T09:11:48.343Z,30.45
2023-01-19T09:14:20.477Z,30.42
2023-01-19T09:16:54.003Z,30.39
2023-01-19T09:19:24.253Z,30.35
2023-01-19T09:21:55.894Z,30.32
2023-01-19T09:24:26.722Z,30.30
2023-01-19T09:26:59.459Z,30.29
2023-01-19T09:29:32.966Z,30.23
2023-01-19T09:32:04.674Z,30.19
2023-01-19T09:34:35.160Z,30.18
2023-01-19T09:37:05.819Z,30.19
2023-01-19T09:39:36.456Z,30.16
2023-01-19T09:42:21.878Z,30.18
2023-01-19T09:44:55.861Z,30.14
2023-01-19T09:47:29.891Z,30.17
2023-01-19T09:50:28.358Z,30.17
2023-01-19T09:53:03.843Z,30.13
2023-01-19T09:55:34.428Z,30.09
2023-01-19T09:58:09.700Z,30.05
2023-01-19T10:00:43.586Z,30.02
2023-01-19T10:03:17.702Z,29.96
2023-01-19T10:06:04.437Z,30.04
2023-01-19T10:08:41.312Z,30.00
2023-01-19T10:11:52.672Z,29.96
2023-01-19T10:14:33.191Z,29.83
2023-01-19T10:17:22.070Z,29.88
2023-01-19T10:19:55.361Z,29.86
2023-01-19T10:22:28.998Z,29.82
2023-01-19T10:25:08.732Z,29.83
2023-01-19T10:27:39.777Z,29.83
2023-01-19T10:30:11.685Z,29.80
2023-01-19T10:32:42.273Z,29.80
2023-01-19T10:35:36.070Z,29.80
2023-01-19T10:38:07.664Z,29.77
2023-01-19T10:40:54.687Z,29.76
2023-01-19T10:43:46.560Z,29.79
2023-01-19T10:46:24.319Z,29.76
2023-01-19T10:48:55.797Z,29.68
2023-01-19T10:51:26.466Z,29.76
2023-01-19T10:54:05.229Z,29.84
2023-01-19T10:56:40.132Z,29.89
2023-01-19T10:59:32.949Z,29.91
2023-01-19T11:02:28.535Z,29.90
2023-01-19T11:05:23.428Z,29.83
2023-01-19T11:07:56.512Z,29.85
2023-01-19T11:10:30.373Z,29.85
2023-01-19T11:13:16.677Z,29.81
2023-01-19T11:15:49.895Z,29.80
2023-01-19T11:18:37.803Z,29.75
2023-01-19T11:21:10.907Z,29.72
2023-01-19T11:23:51.987Z,29.74
2023-01-19T11:26:43.873Z,29.81
2023-01-19T11:29:22.242Z,29.73
2023-01-19T11:31:54.314Z,29.74
2023-01-19T11:34:33.785Z,29.65
2023-01-19T11:37:31.582Z,29.65
2023-01-19T11:40:03.845Z,29.65
2023-01-19T11:42:37.574Z,29.55
2023-01-19T11:45:19.395Z,29.57
2023-01-19T11:47:52.784Z,29.59
2023-01-19T11:50:28.867Z,29.57
2023-01-19T11:53:18.648Z,29.61
2023-01-19T11:55:58.588Z,29.64
2023-01-19T11:58:29.155Z,29.57
2023-01-19T12:01:08.827Z,29.53
2023-01-19T12:04:05.419Z,29.51
2023-01-19T12:06:40.424Z,29.53
2023-01-19T12:09:22.916Z,29.53
2023-01-19T12:12:05.088Z,29.51
2023-01-19T12:14:41.827Z,29.54
2023-01-19T12:17:21.471Z,29.54
2023-01-19T12:19:55.992Z,29.53
2023-01-19T12:22:29.911Z,29.55
2023-01-19T12:25:26.876Z,29.56
2023-01-19T12:27:58.028Z,29.52
2023-01-19T12:30:30.672Z,29.52
2023-01-19T12:33:34.288Z,29.56
2023-01-19T12:36:07.462Z,29.58
2023-01-19T12:38:51.352Z,29.55
2023-01-19T12:41:48.637Z,29.58
2023-01-19T12:44:24.211Z,29.57
2023-01-19T12:46:56.096Z,29.57
2023-01-19T12:49:40.252Z,29.57
2023-01-19T12:52:22.244Z,29.55
2023-01-19T12:55:21.899Z,29.60
2023-01-19T12:57:56.883Z,29.56
2023-01-19T13:00:27.564Z,29.54
2023-01-19T13:03:01.193Z,29.53
2023-01-19T13:05:41.077Z,29.54
2023-01-19T13:08:14.823Z,29.53
2023-01-19T13:11:03.575Z,29.51
2023-01-19T13:13:36.894Z,29.51
2023-01-19T13:16:20.739Z,29.53
2023-01-19T13:19:07.499Z,29.49
2023-01-19T13:21:48.515Z,29.46
2023-01-19T13:24:25.618Z,29.46
2023-01-19T13:26:59.781Z,29.44
2023-01-19T13:29:36.233Z,29.41
2023-01-19T13:32:18.579Z,29.40
2023-01-19T13:34:53.243Z,29.33
2023-01-19T13:37:37.172Z,29.39
2023-01-19T13:40:09.105Z,29.36
2023-01-19T13:42:42.265Z,29.37
2023-01-19T13:45:19.680Z,29.38
2023-01-19T13:47:51.859Z,29.34
2023-01-19T13:50:24.044Z,29.30
2023-01-19T13:52:56.580Z,29.29
2023-01-19T13:55:29.352Z,29.26
2023-01-19T13:58:00.151Z,29.22
2023-01-19T14:00:31.987Z,29.20
2023-01-19T14:03:31.988Z,29.17
2023-01-19T14:06:02.888Z,29.07
2023-01-19T14:08:34.855Z,29.08
2023-01-19T14:11:06.042Z,29.06
2023-01-19T14:13:44.162Z,29.05
2023-01-19T14:16:18.889Z,29.06
2023-01-19T14:19:01.637Z,29.06
2023-01-19T14:21:45.384Z,29.00
2023-01-19T14:24:24.057Z,28.91
2023-01-19T14:26:57.181Z,28.91
2023-01-19T14:29:31.757Z,28.93
2023-01-19T14:32:21.905Z,28.91
2023-01-19T14:35:05.200Z,28.91
2023-01-19T14:37:39.534Z,28.90
2023-01-19T14:40:14.708Z,28.87
2023-01-19T14:42:49.543Z,28.92
2023-01-19T14:45:48.304Z,28.91
2023-01-19T14:48:21.385Z,28.86
2023-01-19T14:51:02.703Z,28.85
2023-01-19T14:53:38.099Z,28.82
2023-01-19T14:56:09.023Z,28.82
2023-01-19T14:58:39.603Z,28.76
2023-01-19T15:01:10.884Z,28.79
2023-01-19T15:03:45.603Z,28.73
2023-01-19T15:06:19.697Z,28.73
2023-01-19T15:08:51.048Z,28.73
2023-01-19T15:11:22.162Z,28.74
2023-01-19T15:13:53.089Z,28.70
2023-01-19T15:16:26.637Z,28.70
2023-01-19T15:18:58.195Z,28.68
2023-01-19T15:21:28.458Z,28.65
2023-01-19T15:24:01.376Z,28.64
2023-01-19T15:26:32.001Z,28.61
2023-01-19T15:29:02.748Z,28.58
2023-01-19T15:31:33.298Z,28.57
2023-01-19T15:34:03.600Z,28.55
2023-01-19T15:36:34.517Z,28.49
2023-01-19T15:39:05.741Z,28.50
2023-01-19T15:41:36.544Z,28.47
2023-01-19T15:44:09.474Z,28.47
2023-01-19T15:46:40.066Z,28.45
2023-01-19T15:49:10.830Z,28.43
2023-01-19T15:51:44.444Z,28.41
2023-01-19T15:54:16.166Z,28.43
2023-01-19T15:56:46.475Z,28.37
2023-01-19T15:59:17.472Z,28.39
2023-01-19T16:01:48.165Z,28.38
2023-01-19T16:04:18.714Z,28.38
2023-01-19T16:06:57.792Z,28.39
2023-01-19T16:09:28.576Z,28.34
2023-01-19T16:12:01.238Z,28.32
2023-01-19T16:14:32.327Z,28.33
2023-01-19T16:17:02.856Z,28.32
2023-01-19T16:19:33.102Z,28.32
2023-01-19T16:22:04.200Z,28.28
2023-01-19T16:24:34.821Z,28.29
2023-01-19T16:27:05.811Z,28.28
2023-01-19T16:29:37.061Z,28.29
2023-01-19T16:32:07.830Z,28.28
2023-01-19T16:34:39.281Z,28.26
2023-01-19T16:37:10.520Z,28.26
2023-01-19T16:39:40.862Z,28.23
2023-01-19T16:42:11.205Z,28.24
2023-01-19T16:44:41.779Z,28.22
2023-01-19T16:47:12.691Z,28.22
2023-01-19T16:49:43.633Z,28.21
2023-01-19T16:52:14.113Z,28.18
2023-01-19T16:54:45.583Z,28.19
2023-01-19T16:57:15.925Z,28.16
2023-01-19T16:59:46.547Z,28.15
2023-01-19T17:02:17.801Z,28.15
2023-01-19T17:04:49.161Z,28.12
2023-01-19T17:07:30.595Z,28.14
2023-01-19T17:10:01.040Z,28.14
2023-01-19T17:12:32.387Z,28.13
2023-01-19T17:15:02.894Z,28.12
2023-01-19T17:17:35.848Z,28.11
2023-01-19T17:20:07.093Z,28.09
2023-01-19T17:22:37.744Z,28.09
2023-01-19T17:25:08.886Z,28.08
2023-01-19T17:27:39.140Z,28.07
2023-01-19T17:30:10.697Z,28.07
2023-01-19T17:32:43.555Z,28.04
2023-01-19T17:35:13.842Z,28.07
2023-01-19T17:37:44.482Z,28.05
2023-01-19T17:40:15.000Z,28.00
2023-01-19T17:42:45.364Z,28.01
2023-01-19T17:45:15.965Z,28.01
2023-01-19T17:47:46.264Z,27.98
2023-01-19T17:50:20.384Z,28.00
2023-01-19T17:52:50.741Z,27.98
2023-01-19T17:55:20.877Z,27.98
2023-01-19T17:57:51.486Z,27.97
2023-01-19T18:00:22.159Z,27.97
2023-01-19T18:02:53.693Z,27.99
2023-01-19T18:05:24.724Z,27.96
2023-01-19T18:07:54.998Z,27.98
2023-01-19T18:10:25.153Z,27.97
2023-01-19T18:12:55.453Z,27.96
2023-01-19T18:15:25.700Z,27.95
2023-01-19T18:17:56.008Z,27.92
2023-01-19T18:20:26.848Z,27.94
2023-01-19T18:22:57.157Z,27.92
2023-01-19T18:25:27.771Z,27.91
2023-01-19T18:27:58.304Z,27.90
2023-01-19T18:30:28.866Z,27.90
2023-01-19T18:32:59.133Z,27.93
2023-01-19T18:35:30.420Z,27.92
2023-01-19T18:38:00.996Z,27.88
2023-01-19T18:40:31.534Z,27.90
2023-01-19T18:43:02.414Z,27.88
2023-01-19T18:45:32.891Z,27.87
2023-01-19T18:48:03.369Z,27.89
2023-01-19T18:50:34.374Z,27.85
2023-01-19T18:53:05.397Z,27.85
2023-01-19T18:55:37.290Z,27.82
2023-01-19T18:58:08.232Z,27.84
2023-01-19T19:00:38.885Z,27.82
2023-01-19T19:03:11.332Z,27.81
2023-01-19T19:05:42.073Z,27.80
2023-01-19T19:08:12.586Z,27.78
2023-01-19T19:10:45.872Z,27.77
2023-01-19T19:13:18.662Z,27.77
2023-01-19T19:15:49.303Z,27.78
2023-01-19T19:18:20.084Z,27.77
2023-01-19T19:20:51.170Z,27.76
2023-01-19T19:23:21.435Z,27.78
2023-01-19T19:25:52.545Z,27.78
2023-01-19T19:28:23.051Z,27.78
2023-01-19T19:31:04.613Z,27.80
2023-01-19T19:33:38.081Z,27.76
2023-01-19T19:36:09.694Z,27.73
2023-01-19T19:38:45.812Z,27.71
2023-01-19T19:41:19.710Z,27.71
2023-01-19T19:43:50.284Z,27.71
2023-01-19T19:46:23.816Z,27.71
2023-01-19T19:48:57.474Z,27.73
2023-01-19T19:51:29.446Z,27.69
2023-01-19T19:54:01.438Z,27.71
2023-01-19T19:56:33.293Z,27.70
2023-01-19T19:59:03.972Z,27.66
2023-01-19T20:01:34.721Z,27.67
2023-01-19T20:04:10.397Z,27.66
2023-01-19T20:06:45.340Z,27.67
2023-01-19T20:09:17.380Z,27.65
2023-01-19T20:11:49.900Z,27.63
2023-01-19T20:14:20.314Z,27.66
2023-01-19T20:16:51.207Z,27.65
2023-01-19T20:19:22.303Z,27.64
2023-01-19T20:21:53.188Z,27.63
2023-01-19T20:24:23.936Z,27.63
2023-01-19T20:26:55.674Z,27.60
2023-01-19T20:29:26.691Z,27.60
2023-01-19T20:31:57.701Z,27.58
2023-01-19T20:34:33.521Z,27.56
2023-01-19T20:37:05.680Z,27.59
2023-01-19T20:39:37.650Z,27.59
2023-01-19T20:42:12.523Z,27.54
2023-01-19T20:44:42.930Z,27.54
2023-01-19T20:47:13.240Z,27.59
2023-01-19T20:49:44.024Z,27.55
2023-01-19T20:52:14.793Z,27.54
2023-01-19T20:54:45.085Z,27.48
2023-01-19T20:57:15.364Z,27.50
2023-01-19T20:59:45.852Z,27.55
2023-01-19T21:02:17.776Z,27.54
2023-01-19T21:04:48.275Z,27.54
2023-01-19T21:07:18.617Z,27.53
2023-01-19T21:09:49.159Z,27.53
2023-01-19T21:12:21.340Z,27.53
2023-01-19T21:14:51.884Z,27.52
2023-01-19T21:17:22.117Z,27.54
2023-01-19T21:19:52.444Z,27.51
2023-01-19T21:22:23.784Z,27.52
2023-01-19T21:24:54.401Z,27.50
2023-01-19T21:27:24.647Z,27.54
2023-01-19T21:29:55.147Z,27.52
2023-01-19T21:32:29.454Z,27.53
2023-01-19T21:34:59.740Z,27.48
2023-01-19T21:37:32.006Z,27.49
2023-01-19T21:40:02.475Z,27.48
2023-01-19T21:42:33.021Z,27.44
2023-01-19T21:45:03.445Z,27.43
2023-01-19T21:47:38.859Z,27.41
2023-01-19T21:50:11.216Z,27.40
2023-01-19T21:52:42.021Z,27.42
2023-01-19T21:55:13.386Z,27.42
2023-01-19T21:57:43.997Z,27.41
2023-01-19T22:00:14.804Z,27.43
2023-01-19T22:02:58.603Z,27.43
2023-01-19T22:05:40.937Z,27.42
2023-01-19T22:08:11.522Z,27.42
2023-01-19T22:10:41.727Z,27.47
2023-01-19T22:13:12.335Z,27.49
2023-01-19T22:15:42.679Z,27.47
2023-01-19T22:18:17.568Z,27.49
2023-01-19T22:20:48.119Z,27.48
2023-01-19T22:23:21.661Z,27.49
2023-01-19T22:25:52.119Z,27.51
2023-01-19T22:28:23.139Z,27.48
2023-01-19T22:30:53.524Z,27.50
2023-01-19T22:33:23.773Z,27.48
2023-01-19T22:35:54.046Z,27.48
2023-01-19T22:38:24.701Z,27.48
2023-01-19T22:40:55.418Z,27.47
2023-01-19T22:43:25.663Z,27.46
2023-01-19T22:45:59.982Z,27.47
2023-01-19T22:48:32.860Z,27.44
2023-01-19T22:51:04.276Z,27.46
2023-01-19T22:53:34.681Z,27.46
2023-01-19T22:56:23.231Z,27.48
2023-01-19T22:58:54.242Z,27.42
2023-01-19T23:01:34.283Z,27.46
2023-01-19T23:04:08.805Z,27.45
2023-01-19T23:06:39.551Z,27.40
2023-01-19T23:09:13.404Z,27.44
2023-01-19T23:11:48.973Z,27.46
2023-01-19T23:14:21.816Z,27.46
2023-01-19T23:16:55.350Z,27.48
2023-01-19T23:19:25.886Z,27.47
2023-01-19T23:21:56.614Z,27.46
2023-01-19T23:24:26.951Z,27.49
2023-01-19T23:26:58.061Z,27.52
2023-01-19T23:29:28.397Z,27.53
2023-01-19T23:31:58.721Z,27.48
2023-01-19T23:34:29.537Z,27.48
2023-01-19T23:37:00.415Z,27.50
2023-01-19T23:39:33.700Z,27.49
2023-01-19T23:42:08.615Z,27.56
2023-01-19T23:44:39.372Z,27.55
2023-01-19T23:47:10.276Z,27.52
2023-01-19T23:49:41.211Z,27.54
2023-01-19T23:52:11.608Z,27.55
2023-01-19T23:54:42.613Z,27.57
2023-01-19T23:57:12.955Z,27.62
2023-01-19T23:59:52.275Z,27.65
